sensor_id;sensor_type;location;lat;lon;timestamp;P1;durP1;ratioP1;P2;durP2;ratioP2
49910;SDS011;35803;53.096;5.844;2023-05-07T00:01:37;20.35;;;12.18;;
49910;SDS011;35803;53.096;5.844;2023-05-07T00:04:03;22.63;;;12.45;;
49910;SDS011;35803;53.096;5.844;2023-05-07T00:06:29;19.13;;;12.02;;
49910;SDS011;35803;53.096;5.844;2023-05-07T00:08:55;19.92;;;12.95;;
49910;SDS011;35803;53.096;5.844;2023-05-07T00:11:21;23.55;;;12.93;;
49910;SDS011;35803;53.096;5.844;2023-05-07T00:13:49;19.38;;;12.45;;
49910;SDS011;35803;53.096;5.844;2023-05-07T00:16:15;20.55;;;12.02;;
49910;SDS011;35803;53.096;5.844;2023-05-07T00:18:40;23.17;;;13.25;;
49910;SDS011;35803;53.096;5.844;2023-05-07T00:21:06;20.77;;;12.55;;
49910;SDS011;35803;53.096;5.844;2023-05-07T00:23:31;19.60;;;12.13;;
49910;SDS011;35803;53.096;5.844;2023-05-07T00:25:58;21.85;;;12.15;;
49910;SDS011;35803;53.096;5.844;2023-05-07T00:28:23;24.40;;;12.77;;
49910;SDS011;35803;53.096;5.844;2023-05-07T00:30:49;22.23;;;12.65;;
49910;SDS011;35803;53.096;5.844;2023-05-07T00:33:14;22.80;;;11.48;;
49910;SDS011;35803;53.096;5.844;2023-05-07T00:35:40;18.38;;;11.98;;
49910;SDS011;35803;53.096;5.844;2023-05-07T00:38:06;19.33;;;12.07;;
49910;SDS011;35803;53.096;5.844;2023-05-07T00:40:31;20.02;;;12.35;;
49910;SDS011;35803;53.096;5.844;2023-05-07T00:42:57;19.90;;;11.60;;
49910;SDS011;35803;53.096;5.844;2023-05-07T00:45:25;19.92;;;11.68;;
49910;SDS011;35803;53.096;5.844;2023-05-07T00:47:51;22.20;;;12.32;;
49910;SDS011;35803;53.096;5.844;2023-05-07T00:50:18;22.42;;;11.70;;
49910;SDS011;35803;53.096;5.844;2023-05-07T00:52:44;22.33;;;12.00;;
49910;SDS011;35803;53.096;5.844;2023-05-07T00:55:09;20.15;;;12.05;;
49910;SDS011;35803;53.096;5.844;2023-05-07T00:57:36;21.40;;;12.43;;
49910;SDS011;35803;53.096;5.844;2023-05-07T01:00:05;22.75;;;12.20;;
49910;SDS011;35803;53.096;5.844;2023-05-07T01:02:31;20.63;;;11.55;;
49910;SDS011;35803;53.096;5.844;2023-05-07T01:04:57;21.92;;;11.63;;
49910;SDS011;35803;53.096;5.844;2023-05-07T01:07:23;19.00;;;11.70;;
49910;SDS011;35803;53.096;5.844;2023-05-07T01:09:48;19.80;;;11.68;;
49910;SDS011;35803;53.096;5.844;2023-05-07T01:12:15;19.52;;;11.98;;
49910;SDS011;35803;53.096;5.844;2023-05-07T01:14:41;22.27;;;11.82;;
49910;SDS011;35803;53.096;5.844;2023-05-07T01:17:07;18.63;;;11.02;;
49910;SDS011;35803;53.096;5.844;2023-05-07T01:19:33;18.92;;;11.10;;
49910;SDS011;35803;53.096;5.844;2023-05-07T01:22:02;17.17;;;10.98;;
49910;SDS011;35803;53.096;5.844;2023-05-07T01:24:30;19.88;;;11.43;;
49910;SDS011;35803;53.096;5.844;2023-05-07T01:26:56;18.90;;;10.70;;
49910;SDS011;35803;53.096;5.844;2023-05-07T01:29:22;19.20;;;11.60;;
49910;SDS011;35803;53.096;5.844;2023-05-07T01:31:47;19.65;;;10.43;;
49910;SDS011;35803;53.096;5.844;2023-05-07T01:34:14;19.02;;;10.57;;
49910;SDS011;35803;53.096;5.844;2023-05-07T01:36:42;21.45;;;11.98;;
49910;SDS011;35803;53.096;5.844;2023-05-07T01:39:08;24.85;;;11.75;;
49910;SDS011;35803;53.096;5.844;2023-05-07T01:41:34;18.42;;;11.40;;
49910;SDS011;35803;53.096;5.844;2023-05-07T01:43:59;21.45;;;12.65;;
49910;SDS011;35803;53.096;5.844;2023-05-07T01:46:26;19.85;;;12.20;;
49910;SDS011;35803;53.096;5.844;2023-05-07T01:48:52;22.92;;;12.40;;
49910;SDS011;35803;53.096;5.844;2023-05-07T01:51:18;22.17;;;12.02;;
49910;SDS011;35803;53.096;5.844;2023-05-07T01:53:45;22.70;;;13.10;;
49910;SDS011;35803;53.096;5.844;2023-05-07T01:56:16;22.42;;;12.40;;
49910;SDS011;35803;53.096;5.844;2023-05-07T01:58:44;24.23;;;12.70;;
49910;SDS011;35803;53.096;5.844;2023-05-07T02:01:11;22.33;;;12.68;;
49910;SDS011;35803;53.096;5.844;2023-05-07T02:03:36;23.92;;;13.10;;
49910;SDS011;35803;53.096;5.844;2023-05-07T02:06:02;22.80;;;12.88;;
49910;SDS011;35803;53.096;5.844;2023-05-07T02:08:27;22.58;;;13.18;;
49910;SDS011;35803;53.096;5.844;2023-05-07T02:10:53;22.13;;;12.93;;
49910;SDS011;35803;53.096;5.844;2023-05-07T02:13:19;24.77;;;14.18;;
49910;SDS011;35803;53.096;5.844;2023-05-07T02:15:45;23.42;;;14.27;;
49910;SDS011;35803;53.096;5.844;2023-05-07T02:18:15;22.45;;;13.77;;
49910;SDS011;35803;53.096;5.844;2023-05-07T02:20:41;27.17;;;14.52;;
49910;SDS011;35803;53.096;5.844;2023-05-07T02:23:07;26.77;;;14.80;;
49910;SDS011;35803;53.096;5.844;2023-05-07T02:25:32;27.95;;;15.60;;
49910;SDS011;35803;53.096;5.844;2023-05-07T02:27:58;28.20;;;15.32;;
49910;SDS011;35803;53.096;5.844;2023-05-07T02:30:24;26.92;;;15.15;;
49910;SDS011;35803;53.096;5.844;2023-05-07T02:32:52;28.90;;;16.00;;
49910;SDS011;35803;53.096;5.844;2023-05-07T02:35:18;30.65;;;15.95;;
49910;SDS011;35803;53.096;5.844;2023-05-07T02:37:44;27.80;;;16.02;;
49910;SDS011;35803;53.096;5.844;2023-05-07T02:40:09;29.13;;;15.93;;
49910;SDS011;35803;53.096;5.844;2023-05-07T02:42:36;28.65;;;16.48;;
49910;SDS011;35803;53.096;5.844;2023-05-07T02:45:02;27.63;;;16.08;;
49910;SDS011;35803;53.096;5.844;2023-05-07T02:47:27;29.38;;;15.63;;
49910;SDS011;35803;53.096;5.844;2023-05-07T02:49:54;27.73;;;17.00;;
49910;SDS011;35803;53.096;5.844;2023-05-07T02:52:20;29.23;;;16.30;;
49910;SDS011;35803;53.096;5.844;2023-05-07T02:54:46;28.40;;;16.33;;
49910;SDS011;35803;53.096;5.844;2023-05-07T02:57:11;31.52;;;16.08;;
49910;SDS011;35803;53.096;5.844;2023-05-07T02:59:37;29.52;;;17.02;;
49910;SDS011;35803;53.096;5.844;2023-05-07T03:02:02;29.55;;;17.30;;
49910;SDS011;35803;53.096;5.844;2023-05-07T03:04:28;30.30;;;16.52;;
49910;SDS011;35803;53.096;5.844;2023-05-07T03:06:53;29.75;;;16.85;;
49910;SDS011;35803;53.096;5.844;2023-05-07T03:09:19;28.77;;;16.25;;
49910;SDS011;35803;53.096;5.844;2023-05-07T03:11:45;27.27;;;16.48;;
49910;SDS011;35803;53.096;5.844;2023-05-07T03:14:11;31.50;;;17.17;;
49910;SDS011;35803;53.096;5.844;2023-05-07T03:16:37;30.98;;;16.30;;
49910;SDS011;35803;53.096;5.844;2023-05-07T03:19:02;30.42;;;17.10;;
49910;SDS011;35803;53.096;5.844;2023-05-07T03:21:28;35.08;;;17.75;;
49910;SDS011;35803;53.096;5.844;2023-05-07T03:23:53;29.27;;;17.15;;
49910;SDS011;35803;53.096;5.844;2023-05-07T03:26:19;32.05;;;17.67;;
49910;SDS011;35803;53.096;5.844;2023-05-07T03:28:45;32.38;;;17.55;;
49910;SDS011;35803;53.096;5.844;2023-05-07T03:31:11;30.02;;;17.80;;
49910;SDS011;35803;53.096;5.844;2023-05-07T03:33:38;32.08;;;17.45;;
49910;SDS011;35803;53.096;5.844;2023-05-07T03:36:08;31.40;;;17.77;;
49910;SDS011;35803;53.096;5.844;2023-05-07T03:38:33;28.75;;;16.88;;
49910;SDS011;35803;53.096;5.844;2023-05-07T03:40:59;30.25;;;17.83;;
49910;SDS011;35803;53.096;5.844;2023-05-07T03:43:25;28.17;;;17.05;;
49910;SDS011;35803;53.096;5.844;2023-05-07T03:45:50;35.05;;;18.23;;
49910;SDS011;35803;53.096;5.844;2023-05-07T03:48:16;33.92;;;18.48;;
49910;SDS011;35803;53.096;5.844;2023-05-07T03:50:41;36.05;;;19.95;;
49910;SDS011;35803;53.096;5.844;2023-05-07T03:53:07;34.97;;;18.90;;
49910;SDS011;35803;53.096;5.844;2023-05-07T03:55:33;34.35;;;18.52;;
49910;SDS011;35803;53.096;5.844;2023-05-07T03:57:58;36.20;;;19.08;;
49910;SDS011;35803;53.096;5.844;2023-05-07T04:00:24;35.67;;;18.58;;
49910;SDS011;35803;53.096;5.844;2023-05-07T04:02:49;35.47;;;18.17;;
49910;SDS011;35803;53.096;5.844;2023-05-07T04:05:15;32.05;;;18.38;;
49910;SDS011;35803;53.096;5.844;2023-05-07T04:07:41;33.88;;;18.38;;
49910;SDS011;35803;53.096;5.844;2023-05-07T04:10:06;37.75;;;19.65;;
49910;SDS011;35803;53.096;5.844;2023-05-07T04:12:32;34.70;;;18.70;;
49910;SDS011;35803;53.096;5.844;2023-05-07T04:14:58;33.53;;;18.02;;
49910;SDS011;35803;53.096;5.844;2023-05-07T04:17:23;37.97;;;19.50;;
49910;SDS011;35803;53.096;5.844;2023-05-07T04:19:49;37.95;;;19.50;;
49910;SDS011;35803;53.096;5.844;2023-05-07T04:22:15;36.05;;;19.48;;
49910;SDS011;35803;53.096;5.844;2023-05-07T04:24:41;36.88;;;19.63;;
49910;SDS011;35803;53.096;5.844;2023-05-07T04:27:06;36.05;;;19.35;;
49910;SDS011;35803;53.096;5.844;2023-05-07T04:29:32;36.47;;;19.05;;
49910;SDS011;35803;53.096;5.844;2023-05-07T04:31:57;36.67;;;18.48;;
49910;SDS011;35803;53.096;5.844;2023-05-07T04:34:23;38.05;;;20.30;;
49910;SDS011;35803;53.096;5.844;2023-05-07T04:36:49;38.47;;;19.55;;
49910;SDS011;35803;53.096;5.844;2023-05-07T04:39:15;41.33;;;20.63;;
49910;SDS011;35803;53.096;5.844;2023-05-07T04:41:40;38.00;;;19.83;;
49910;SDS011;35803;53.096;5.844;2023-05-07T04:44:05;36.65;;;19.80;;
49910;SDS011;35803;53.096;5.844;2023-05-07T04:46:31;39.47;;;21.40;;
49910;SDS011;35803;53.096;5.844;2023-05-07T04:49:00;38.22;;;19.95;;
49910;SDS011;35803;53.096;5.844;2023-05-07T04:51:26;38.45;;;20.48;;
49910;SDS011;35803;53.096;5.844;2023-05-07T04:53:51;40.65;;;20.70;;
49910;SDS011;35803;53.096;5.844;2023-05-07T04:56:17;39.50;;;20.13;;
49910;SDS011;35803;53.096;5.844;2023-05-07T04:58:42;41.50;;;20.15;;
49910;SDS011;35803;53.096;5.844;2023-05-07T05:01:08;37.83;;;20.52;;
49910;SDS011;35803;53.096;5.844;2023-05-07T05:03:33;36.80;;;20.42;;
49910;SDS011;35803;53.096;5.844;2023-05-07T05:05:59;45.55;;;21.35;;
49910;SDS011;35803;53.096;5.844;2023-05-07T05:08:25;40.95;;;20.60;;
49910;SDS011;35803;53.096;5.844;2023-05-07T05:10:50;45.60;;;21.83;;
49910;SDS011;35803;53.096;5.844;2023-05-07T05:13:16;38.92;;;20.00;;
49910;SDS011;35803;53.096;5.844;2023-05-07T05:15:42;46.15;;;22.17;;
49910;SDS011;35803;53.096;5.844;2023-05-07T05:18:08;41.45;;;21.92;;
49910;SDS011;35803;53.096;5.844;2023-05-07T05:20:33;42.53;;;21.35;;
49910;SDS011;35803;53.096;5.844;2023-05-07T05:22:59;44.63;;;21.48;;
49910;SDS011;35803;53.096;5.844;2023-05-07T05:25:24;43.15;;;22.23;;
49910;SDS011;35803;53.096;5.844;2023-05-07T05:27:50;37.33;;;20.70;;
49910;SDS011;35803;53.096;5.844;2023-05-07T05:30:16;44.33;;;20.85;;
49910;SDS011;35803;53.096;5.844;2023-05-07T05:32:41;40.22;;;21.25;;
49910;SDS011;35803;53.096;5.844;2023-05-07T05:35:07;43.85;;;22.35;;
49910;SDS011;35803;53.096;5.844;2023-05-07T05:37:32;42.67;;;22.20;;
49910;SDS011;35803;53.096;5.844;2023-05-07T05:39:59;41.88;;;22.13;;
49910;SDS011;35803;53.096;5.844;2023-05-07T05:42:24;40.70;;;21.20;;
49910;SDS011;35803;53.096;5.844;2023-05-07T05:44:50;40.65;;;21.20;;
49910;SDS011;35803;53.096;5.844;2023-05-07T05:47:15;46.08;;;22.88;;
49910;SDS011;35803;53.096;5.844;2023-05-07T05:49:41;49.00;;;22.33;;
49910;SDS011;35803;53.096;5.844;2023-05-07T05:52:08;40.97;;;21.88;;
49910;SDS011;35803;53.096;5.844;2023-05-07T05:54:34;44.35;;;21.95;;
49910;SDS011;35803;53.096;5.844;2023-05-07T05:56:59;42.58;;;21.85;;
49910;SDS011;35803;53.096;5.844;2023-05-07T05:59:25;44.42;;;22.17;;
49910;SDS011;35803;53.096;5.844;2023-05-07T06:01:51;42.17;;;21.67;;
49910;SDS011;35803;53.096;5.844;2023-05-07T06:04:16;43.92;;;22.40;;
49910;SDS011;35803;53.096;5.844;2023-05-07T06:06:42;41.47;;;21.05;;
49910;SDS011;35803;53.096;5.844;2023-05-07T06:09:07;34.92;;;20.10;;
49910;SDS011;35803;53.096;5.844;2023-05-07T06:11:33;39.22;;;20.25;;
49910;SDS011;35803;53.096;5.844;2023-05-07T06:13:58;39.30;;;20.40;;
49910;SDS011;35803;53.096;5.844;2023-05-07T06:16:24;39.05;;;21.05;;
49910;SDS011;35803;53.096;5.844;2023-05-07T06:18:50;40.28;;;19.92;;
49910;SDS011;35803;53.096;5.844;2023-05-07T06:21:16;41.72;;;21.67;;
49910;SDS011;35803;53.096;5.844;2023-05-07T06:23:41;37.95;;;20.40;;
49910;SDS011;35803;53.096;5.844;2023-05-07T06:26:07;37.05;;;20.45;;
49910;SDS011;35803;53.096;5.844;2023-05-07T06:28:32;35.30;;;19.58;;
49910;SDS011;35803;53.096;5.844;2023-05-07T06:31:17;35.60;;;19.65;;
49910;SDS011;35803;53.096;5.844;2023-05-07T06:33:45;38.20;;;20.35;;
49910;SDS011;35803;53.096;5.844;2023-05-07T06:36:11;34.58;;;19.52;;
49910;SDS011;35803;53.096;5.844;2023-05-07T06:38:37;35.58;;;18.88;;
49910;SDS011;35803;53.096;5.844;2023-05-07T06:41:02;36.90;;;20.73;;
49910;SDS011;35803;53.096;5.844;2023-05-07T06:43:28;33.78;;;18.40;;
49910;SDS011;35803;53.096;5.844;2023-05-07T06:45:53;32.35;;;18.98;;
49910;SDS011;35803;53.096;5.844;2023-05-07T06:48:18;33.30;;;17.70;;
49910;SDS011;35803;53.096;5.844;2023-05-07T06:50:44;31.92;;;18.25;;
49910;SDS011;35803;53.096;5.844;2023-05-07T06:53:10;30.83;;;18.13;;
49910;SDS011;35803;53.096;5.844;2023-05-07T06:55:36;29.83;;;18.35;;
49910;SDS011;35803;53.096;5.844;2023-05-07T06:58:03;30.27;;;18.13;;
49910;SDS011;35803;53.096;5.844;2023-05-07T07:00:29;33.22;;;19.02;;
49910;SDS011;35803;53.096;5.844;2023-05-07T07:02:56;28.08;;;17.00;;
49910;SDS011;35803;53.096;5.844;2023-05-07T07:05:21;29.48;;;17.60;;
49910;SDS011;35803;53.096;5.844;2023-05-07T07:07:47;29.25;;;17.50;;
49910;SDS011;35803;53.096;5.844;2023-05-07T07:10:21;32.58;;;18.00;;
49910;SDS011;35803;53.096;5.844;2023-05-07T07:12:47;31.98;;;17.92;;
49910;SDS011;35803;53.096;5.844;2023-05-07T07:15:13;29.77;;;17.08;;
49910;SDS011;35803;53.096;5.844;2023-05-07T07:17:39;33.05;;;18.33;;
49910;SDS011;35803;53.096;5.844;2023-05-07T07:20:05;28.92;;;17.00;;
49910;SDS011;35803;53.096;5.844;2023-05-07T07:22:31;33.28;;;18.10;;
49910;SDS011;35803;53.096;5.844;2023-05-07T07:24:56;29.17;;;17.80;;
49910;SDS011;35803;53.096;5.844;2023-05-07T07:27:22;29.35;;;17.38;;
49910;SDS011;35803;53.096;5.844;2023-05-07T07:29:47;28.23;;;17.23;;
49910;SDS011;35803;53.096;5.844;2023-05-07T07:32:13;29.02;;;17.40;;
49910;SDS011;35803;53.096;5.844;2023-05-07T07:34:38;27.70;;;17.17;;
49910;SDS011;35803;53.096;5.844;2023-05-07T07:37:04;26.95;;;15.90;;
49910;SDS011;35803;53.096;5.844;2023-05-07T07:39:30;25.20;;;16.17;;
49910;SDS011;35803;53.096;5.844;2023-05-07T07:41:57;25.98;;;15.93;;
49910;SDS011;35803;53.096;5.844;2023-05-07T07:44:22;27.65;;;17.42;;
49910;SDS011;35803;53.096;5.844;2023-05-07T07:46:48;25.90;;;16.63;;
49910;SDS011;35803;53.096;5.844;2023-05-07T07:49:13;27.90;;;15.75;;
49910;SDS011;35803;53.096;5.844;2023-05-07T07:51:40;26.10;;;16.08;;
49910;SDS011;35803;53.096;5.844;2023-05-07T07:54:05;27.13;;;15.95;;
49910;SDS011;35803;53.096;5.844;2023-05-07T07:56:36;23.92;;;15.07;;
49910;SDS011;35803;53.096;5.844;2023-05-07T07:59:02;30.60;;;17.35;;
49910;SDS011;35803;53.096;5.844;2023-05-07T08:01:29;25.95;;;15.93;;
49910;SDS011;35803;53.096;5.844;2023-05-07T08:03:55;23.10;;;15.77;;
49910;SDS011;35803;53.096;5.844;2023-05-07T08:06:23;26.58;;;15.73;;
49910;SDS011;35803;53.096;5.844;2023-05-07T08:08:48;23.52;;;15.48;;
49910;SDS011;35803;53.096;5.844;2023-05-07T08:11:14;28.50;;;16.55;;
49910;SDS011;35803;53.096;5.844;2023-05-07T08:13:40;26.73;;;15.63;;
49910;SDS011;35803;53.096;5.844;2023-05-07T08:16:05;26.17;;;16.75;;
49910;SDS011;35803;53.096;5.844;2023-05-07T08:18:31;26.25;;;16.23;;
49910;SDS011;35803;53.096;5.844;2023-05-07T08:20:56;27.85;;;16.50;;
49910;SDS011;35803;53.096;5.844;2023-05-07T08:23:22;25.40;;;15.60;;
49910;SDS011;35803;53.096;5.844;2023-05-07T08:25:48;26.10;;;16.67;;
49910;SDS011;35803;53.096;5.844;2023-05-07T08:28:14;25.35;;;15.88;;
49910;SDS011;35803;53.096;5.844;2023-05-07T08:30:40;24.88;;;16.27;;
49910;SDS011;35803;53.096;5.844;2023-05-07T08:33:05;25.00;;;16.13;;
49910;SDS011;35803;53.096;5.844;2023-05-07T08:35:31;25.58;;;15.85;;
49910;SDS011;35803;53.096;5.844;2023-05-07T08:37:57;25.85;;;16.45;;
49910;SDS011;35803;53.096;5.844;2023-05-07T08:40:23;24.33;;;15.88;;
49910;SDS011;35803;53.096;5.844;2023-05-07T08:42:51;24.65;;;16.10;;
49910;SDS011;35803;53.096;5.844;2023-05-07T08:45:18;27.02;;;16.15;;
49910;SDS011;35803;53.096;5.844;2023-05-07T08:47:46;24.52;;;16.52;;
49910;SDS011;35803;53.096;5.844;2023-05-07T08:50:12;24.40;;;15.93;;
49910;SDS011;35803;53.096;5.844;2023-05-07T08:52:41;24.95;;;14.75;;
49910;SDS011;35803;53.096;5.844;2023-05-07T08:55:07;26.10;;;16.30;;
49910;SDS011;35803;53.096;5.844;2023-05-07T08:57:34;22.23;;;14.52;;
49910;SDS011;35803;53.096;5.844;2023-05-07T09:00:00;24.35;;;15.63;;
49910;SDS011;35803;53.096;5.844;2023-05-07T09:02:28;23.13;;;14.98;;
49910;SDS011;35803;53.096;5.844;2023-05-07T09:04:53;23.60;;;15.80;;
49910;SDS011;35803;53.096;5.844;2023-05-07T09:07:19;25.58;;;15.85;;
49910;SDS011;35803;53.096;5.844;2023-05-07T09:09:45;23.05;;;14.75;;
49910;SDS011;35803;53.096;5.844;2023-05-07T09:12:11;24.98;;;15.80;;
49910;SDS011;35803;53.096;5.844;2023-05-07T09:14:37;22.95;;;15.20;;
49910;SDS011;35803;53.096;5.844;2023-05-07T09:17:04;21.60;;;14.32;;
49910;SDS011;35803;53.096;5.844;2023-05-07T09:19:29;23.15;;;14.75;;
49910;SDS011;35803;53.096;5.844;2023-05-07T09:22:02;20.35;;;14.43;;
49910;SDS011;35803;53.096;5.844;2023-05-07T09:26:59;23.92;;;14.55;;
49910;SDS011;35803;53.096;5.844;2023-05-07T09:29:25;22.17;;;14.65;;
49910;SDS011;35803;53.096;5.844;2023-05-07T09:31:51;22.50;;;14.45;;
49910;SDS011;35803;53.096;5.844;2023-05-07T09:34:17;21.63;;;14.45;;
49910;SDS011;35803;53.096;5.844;2023-05-07T09:36:42;21.25;;;14.88;;
49910;SDS011;35803;53.096;5.844;2023-05-07T09:39:08;20.55;;;14.82;;
49910;SDS011;35803;53.096;5.844;2023-05-07T09:41:42;22.27;;;14.43;;
49910;SDS011;35803;53.096;5.844;2023-05-07T09:44:08;21.25;;;14.05;;
49910;SDS011;35803;53.096;5.844;2023-05-07T09:46:34;21.95;;;14.90;;
49910;SDS011;35803;53.096;5.844;2023-05-07T09:49:02;21.10;;;14.23;;
49910;SDS011;35803;53.096;5.844;2023-05-07T09:51:38;21.83;;;15.07;;
49910;SDS011;35803;53.096;5.844;2023-05-07T09:54:05;23.25;;;14.80;;
49910;SDS011;35803;53.096;5.844;2023-05-07T09:56:31;21.33;;;13.52;;
49910;SDS011;35803;53.096;5.844;2023-05-07T09:58:59;22.83;;;14.63;;
49910;SDS011;35803;53.096;5.844;2023-05-07T10:01:26;20.90;;;13.77;;
49910;SDS011;35803;53.096;5.844;2023-05-07T10:03:52;24.52;;;14.88;;
49910;SDS011;35803;53.096;5.844;2023-05-07T10:06:19;23.08;;;14.82;;
49910;SDS011;35803;53.096;5.844;2023-05-07T10:08:46;22.88;;;15.05;;
49910;SDS011;35803;53.096;5.844;2023-05-07T10:11:12;23.95;;;14.65;;
49910;SDS011;35803;53.096;5.844;2023-05-07T10:13:41;24.20;;;14.93;;
49910;SDS011;35803;53.096;5.844;2023-05-07T10:16:09;22.65;;;14.25;;
49910;SDS011;35803;53.096;5.844;2023-05-07T10:18:35;24.15;;;14.65;;
49910;SDS011;35803;53.096;5.844;2023-05-07T10:21:06;23.55;;;14.88;;
49910;SDS011;35803;53.096;5.844;2023-05-07T10:23:33;26.15;;;15.52;;
49910;SDS011;35803;53.096;5.844;2023-05-07T10:26:03;24.67;;;15.18;;
49910;SDS011;35803;53.096;5.844;2023-05-07T10:28:30;21.85;;;14.35;;
49910;SDS011;35803;53.096;5.844;2023-05-07T10:33:38;24.33;;;15.65;;
49910;SDS011;35803;53.096;5.844;2023-05-07T10:36:04;27.70;;;15.95;;
49910;SDS011;35803;53.096;5.844;2023-05-07T10:38:31;24.58;;;14.90;;
49910;SDS011;35803;53.096;5.844;2023-05-07T10:40:57;23.70;;;15.07;;
49910;SDS011;35803;53.096;5.844;2023-05-07T10:43:23;23.45;;;15.40;;
49910;SDS011;35803;53.096;5.844;2023-05-07T10:51:29;25.33;;;15.43;;
49910;SDS011;35803;53.096;5.844;2023-05-07T10:56:40;24.73;;;14.75;;
49910;SDS011;35803;53.096;5.844;2023-05-07T11:01:59;22.95;;;15.18;;
49910;SDS011;35803;53.096;5.844;2023-05-07T11:04:28;23.55;;;16.23;;
49910;SDS011;35803;53.096;5.844;2023-05-07T11:15:02;25.77;;;16.10;;
49910;SDS011;35803;53.096;5.844;2023-05-07T11:17:32;24.02;;;15.38;;
49910;SDS011;35803;53.096;5.844;2023-05-07T11:20:00;21.75;;;14.77;;
49910;SDS011;35803;53.096;5.844;2023-05-07T11:24:56;22.13;;;14.07;;
49910;SDS011;35803;53.096;5.844;2023-05-07T11:27:24;21.88;;;14.23;;
49910;SDS011;35803;53.096;5.844;2023-05-07T11:29:50;21.25;;;14.07;;
49910;SDS011;35803;53.096;5.844;2023-05-07T11:32:15;20.85;;;13.75;;
49910;SDS011;35803;53.096;5.844;2023-05-07T11:34:52;22.42;;;14.82;;
49910;SDS011;35803;53.096;5.844;2023-05-07T11:37:18;21.88;;;14.80;;
49910;SDS011;35803;53.096;5.844;2023-05-07T11:39:44;23.08;;;14.63;;
49910;SDS011;35803;53.096;5.844;2023-05-07T11:42:33;21.52;;;14.07;;
49910;SDS011;35803;53.096;5.844;2023-05-07T11:45:00;21.15;;;14.80;;
49910;SDS011;35803;53.096;5.844;2023-05-07T11:47:26;20.67;;;14.18;;
49910;SDS011;35803;53.096;5.844;2023-05-07T11:49:52;21.60;;;14.25;;
49910;SDS011;35803;53.096;5.844;2023-05-07T11:52:21;21.42;;;13.57;;
49910;SDS011;35803;53.096;5.844;2023-05-07T11:54:50;21.48;;;14.27;;
49910;SDS011;35803;53.096;5.844;2023-05-07T11:57:16;21.80;;;14.35;;
49910;SDS011;35803;53.096;5.844;2023-05-07T11:59:42;22.00;;;13.70;;
49910;SDS011;35803;53.096;5.844;2023-05-07T12:02:13;20.67;;;13.35;;
49910;SDS011;35803;53.096;5.844;2023-05-07T12:04:40;17.52;;;12.43;;
49910;SDS011;35803;53.096;5.844;2023-05-07T12:07:15;19.05;;;12.52;;
49910;SDS011;35803;53.096;5.844;2023-05-07T12:09:42;22.08;;;13.27;;
49910;SDS011;35803;53.096;5.844;2023-05-07T12:12:08;20.70;;;13.65;;
49910;SDS011;35803;53.096;5.844;2023-05-07T12:14:37;18.10;;;13.15;;
49910;SDS011;35803;53.096;5.844;2023-05-07T12:17:04;20.83;;;13.50;;
49910;SDS011;35803;53.096;5.844;2023-05-07T12:19:30;19.50;;;12.95;;
49910;SDS011;35803;53.096;5.844;2023-05-07T12:21:56;19.25;;;12.93;;
49910;SDS011;35803;53.096;5.844;2023-05-07T12:24:22;20.27;;;12.82;;
49910;SDS011;35803;53.096;5.844;2023-05-07T12:26:48;20.23;;;13.35;;
49910;SDS011;35803;53.096;5.844;2023-05-07T12:29:14;18.52;;;12.73;;
49910;SDS011;35803;53.096;5.844;2023-05-07T12:31:40;21.88;;;14.00;;
49910;SDS011;35803;53.096;5.844;2023-05-07T12:34:06;18.80;;;12.63;;
49910;SDS011;35803;53.096;5.844;2023-05-07T12:36:36;19.77;;;13.30;;
49910;SDS011;35803;53.096;5.844;2023-05-07T12:39:04;16.45;;;12.07;;
49910;SDS011;35803;53.096;5.844;2023-05-07T12:41:30;17.83;;;12.55;;
49910;SDS011;35803;53.096;5.844;2023-05-07T12:43:56;16.55;;;12.05;;
49910;SDS011;35803;53.096;5.844;2023-05-07T12:46:22;18.30;;;12.02;;
49910;SDS011;35803;53.096;5.844;2023-05-07T12:48:48;15.75;;;11.35;;
49910;SDS011;35803;53.096;5.844;2023-05-07T12:51:14;20.60;;;13.25;;
49910;SDS011;35803;53.096;5.844;2023-05-07T12:53:41;15.32;;;11.50;;
49910;SDS011;35803;53.096;5.844;2023-05-07T12:56:07;15.73;;;11.98;;
49910;SDS011;35803;53.096;5.844;2023-05-07T12:58:33;16.83;;;12.60;;
49910;SDS011;35803;53.096;5.844;2023-05-07T13:01:00;17.10;;;10.93;;
49910;SDS011;35803;53.096;5.844;2023-05-07T13:03:30;16.00;;;10.73;;
49910;SDS011;35803;53.096;5.844;2023-05-07T13:06:01;14.88;;;10.75;;
49910;SDS011;35803;53.096;5.844;2023-05-07T13:08:32;15.27;;;11.10;;
49910;SDS011;35803;53.096;5.844;2023-05-07T13:11:01;16.55;;;11.38;;
49910;SDS011;35803;53.096;5.844;2023-05-07T13:13:32;14.43;;;10.65;;
49910;SDS011;35803;53.096;5.844;2023-05-07T13:15:58;15.02;;;10.88;;
49910;SDS011;35803;53.096;5.844;2023-05-07T13:18:25;14.55;;;10.13;;
49910;SDS011;35803;53.096;5.844;2023-05-07T13:20:52;17.00;;;11.07;;
49910;SDS011;35803;53.096;5.844;2023-05-07T13:23:18;14.48;;;10.73;;
49910;SDS011;35803;53.096;5.844;2023-05-07T13:25:44;14.70;;;10.88;;
49910;SDS011;35803;53.096;5.844;2023-05-07T13:28:09;15.00;;;10.65;;
49910;SDS011;35803;53.096;5.844;2023-05-07T13:30:35;13.27;;;9.50;;
49910;SDS011;35803;53.096;5.844;2023-05-07T13:33:01;14.02;;;10.07;;
49910;SDS011;35803;53.096;5.844;2023-05-07T13:35:26;15.55;;;10.50;;
49910;SDS011;35803;53.096;5.844;2023-05-07T13:37:52;15.25;;;10.50;;
49910;SDS011;35803;53.096;5.844;2023-05-07T13:40:18;13.05;;;9.93;;
49910;SDS011;35803;53.096;5.844;2023-05-07T13:42:46;13.85;;;10.38;;
49910;SDS011;35803;53.096;5.844;2023-05-07T13:45:12;20.05;;;10.60;;
49910;SDS011;35803;53.096;5.844;2023-05-07T13:47:42;13.13;;;9.93;;
49910;SDS011;35803;53.096;5.844;2023-05-07T13:50:11;13.88;;;9.98;;
49910;SDS011;35803;53.096;5.844;2023-05-07T13:52:40;15.43;;;10.82;;
49910;SDS011;35803;53.096;5.844;2023-05-07T13:55:08;13.52;;;9.55;;
49910;SDS011;35803;53.096;5.844;2023-05-07T13:57:38;13.38;;;10.02;;
49910;SDS011;35803;53.096;5.844;2023-05-07T14:00:04;12.52;;;9.20;;
49910;SDS011;35803;53.096;5.844;2023-05-07T14:02:31;13.13;;;9.48;;
49910;SDS011;35803;53.096;5.844;2023-05-07T14:04:56;12.35;;;9.77;;
49910;SDS011;35803;53.096;5.844;2023-05-07T14:07:22;12.68;;;9.20;;
49910;SDS011;35803;53.096;5.844;2023-05-07T14:09:48;11.00;;;8.27;;
49910;SDS011;35803;53.096;5.844;2023-05-07T14:12:13;13.50;;;8.95;;
49910;SDS011;35803;53.096;5.844;2023-05-07T14:14:39;12.27;;;9.00;;
49910;SDS011;35803;53.096;5.844;2023-05-07T14:17:04;10.18;;;8.10;;
49910;SDS011;35803;53.096;5.844;2023-05-07T14:19:30;10.52;;;7.68;;
49910;SDS011;35803;53.096;5.844;2023-05-07T14:21:56;11.60;;;8.48;;
49910;SDS011;35803;53.096;5.844;2023-05-07T14:24:21;10.05;;;7.97;;
49910;SDS011;35803;53.096;5.844;2023-05-07T14:26:47;11.25;;;8.32;;
49910;SDS011;35803;53.096;5.844;2023-05-07T14:29:13;13.88;;;9.32;;
49910;SDS011;35803;53.096;5.844;2023-05-07T14:31:40;12.88;;;9.70;;
49910;SDS011;35803;53.096;5.844;2023-05-07T14:34:06;13.90;;;9.73;;
49910;SDS011;35803;53.096;5.844;2023-05-07T14:36:31;13.23;;;9.52;;
49910;SDS011;35803;53.096;5.844;2023-05-07T14:38:57;10.90;;;8.85;;
49910;SDS011;35803;53.096;5.844;2023-05-07T14:41:24;13.55;;;9.95;;
49910;SDS011;35803;53.096;5.844;2023-05-07T14:43:52;13.48;;;9.88;;
49910;SDS011;35803;53.096;5.844;2023-05-07T14:46:18;13.98;;;10.35;;